Talbot, Indiana
Current Conditions -  °F | °C
As of 10:35 PM on Friday 28 Nov 2014 (Local Time) from KDNV Reporting Station
Clear Clear  
Wind Chill: 26°   Ceiling: Unl
Heat Index: 34°   Visibility: 10mi
Dew Point: 28°   Wind: 12mph
Humidity: 76%   Direction: 170°S
Pressure: 29.94"   Gusts: NA
Location:  40.51°N, 87.45°W
Report Text: KDNV 290335Z AUTO 17010KT 10SM CLR 01/M02 A2994 RMK AO2 T00131025
Loading
Personal Weather Stations






























Interactive Weather Map New forecast layout! Learn more

10-Day Weather Forecast

Advertisements
Track Severe Weather on mobile